WetterOnline ( https://www.wetteronline.at )

Wetter aktuell Geisenheim

Aktuelles Wetter: Geisenheim (110m)

6-stündlich | Neueste Meldungen
Ortszeit Temperatur Wetter
Mi, 19.02. 13:00 8.3° C leicht bewölkt
Mi, 19.02. 7:00 6.0° C wolkig
Mi, 19.02. 1:00 6.4° C wolkig
Di, 18.02. 19:00 6.5° C bewölkt
Di, 18.02. 13:00 8.1° C bedeckt
Di, 18.02. 7:00 6.1° C wolkenlos
Di, 18.02. 1:00 7.5° C bewölkt
Mo, 17.02. 19:00 6.3° C Regen
Ortszeit Temperatur Wetter
Mi, 19.02. 14:10 8.6° C fast wolkenlos
Mi, 19.02. 14:00 7.8° C leicht bewölkt
Mi, 19.02. 13:50 7.8° C leicht bewölkt
Mi, 19.02. 13:40 8.3° C wolkig
Mi, 19.02. 13:30 8.2° C wolkig
Mi, 19.02. 13:20 8.2° C wolkig
Mi, 19.02. 13:00 8.3° C leicht bewölkt
Mi, 19.02. 12:30 7.7° C leicht bewölkt
Mi, 19.02. 12:00 7.0° C fast wolkenlos
Mi, 19.02. 11:30 7.4° C fast wolkenlos
Mi, 19.02. 11:00 6.8° C wolkenlos
Ortszeit Relative Feuchte Sichtweite
Mi, 19.02. 13:00 55% >70 km
Mi, 19.02. 7:00 75% 65 km
Mi, 19.02. 1:00 76% 50 km
Di, 18.02. 19:00 74% 45 km
Di, 18.02. 13:00 60% 45 km
Di, 18.02. 7:00 70% 60 km
Di, 18.02. 1:00 74% >70 km
Mo, 17.02. 19:00 80% 3.9 km
Ortszeit Relative Feuchte Sichtweite
Mi, 19.02. 14:10 49% -
Mi, 19.02. 14:00 52% 35 km
Mi, 19.02. 13:50 52% -
Mi, 19.02. 13:40 53% -
Mi, 19.02. 13:30 50% 50 km
Mi, 19.02. 13:20 50% -
Mi, 19.02. 13:00 55% >70 km
Mi, 19.02. 12:30 54% 60 km
Mi, 19.02. 12:00 60% 50 km
Mi, 19.02. 11:30 62% 40 km
Mi, 19.02. 11:00 62% 35 km
Ortszeit Niederschlagsmenge Niederschlagsart
Mi, 19.02. 13:00 0.2 l/m2 in 6 Std. Regen
Mi, 19.02. 7:00 1 l/m2 in 12 Std. Regen
Mi, 19.02. 1:00 0.1 l/m2 in 6 Std. Regen
Di, 18.02. 19:00 0.2 l/m2 in 12 Std. Regen
Di, 18.02. 13:00 0.1 l/m2 in 6 Std. Regen
Di, 18.02. 7:00 0.4 l/m2 in 12 Std. Regen
Di, 18.02. 1:00 0.4 l/m2 in 6 Std. Regen
Mo, 17.02. 19:00 0.5 l/m2 in 12 Std. Regen
Ortszeit Niederschlagsmenge Niederschlagsart
Mi, 19.02. 14:10 keine Meldung -
Mi, 19.02. 14:00 0.0 l/m2 in 1 Std. -
Mi, 19.02. 13:50 keine Meldung -
Mi, 19.02. 13:40 keine Meldung -
Mi, 19.02. 13:30 0.0 l/m2 in 1 Std. -
Mi, 19.02. 13:20 keine Meldung -
Mi, 19.02. 13:00 0.0 l/m2 in 1 Std. Regen
Mi, 19.02. 12:30 0.0 l/m2 in 1 Std. -
Mi, 19.02. 12:00 0.0 l/m2 in 1 Std. -
Mi, 19.02. 11:30 0.0 l/m2 in 1 Std. -
Mi, 19.02. 11:00 0.1 l/m2 in 1 Std. Regen
Ortszeit Stärke Spitze Richtung
km/h Bft. km/h Grad Sektor
Mi, 19.02. 13:00 32 5 65 290° W
Mi, 19.02. 7:00 17 3 33 280° W
Mi, 19.02. 1:00 11 2 17 230° SW
Di, 18.02. 19:00 4 1 47 220° SW
Di, 18.02. 13:00 22 4 54 250° W
Di, 18.02. 7:00 22 4 43 270° W
Di, 18.02. 1:00 13 3 44 240° SW
Mo, 17.02. 19:00 29 5 65 290° W
Ortszeit Stärke Spitze Richtung
km/h Bft. km/h Grad Sektor
Mi, 19.02. 14:10 32 5 - 290° W
Mi, 19.02. 14:00 40 6 61 290° W
Mi, 19.02. 13:50 40 6 - 290° W
Mi, 19.02. 13:40 30 5 - 290° W
Mi, 19.02. 13:30 36 5 61 290° W
Mi, 19.02. 13:20 36 5 - 290° W
Mi, 19.02. 13:00 32 5 54 290° W
Mi, 19.02. 12:30 33 5 56 300° NW
Mi, 19.02. 12:00 37 5 54 300° NW
Mi, 19.02. 11:30 31 5 54 300° NW
Mi, 19.02. 11:00 33 5 52 310° NW
Ortszeit Untergrenze Bedeckung Gattung
total tief tief mittel hoch
Mi, 19.02. 13:00 1320 m 3/8 5/8 - - -
Mi, 19.02. 7:00 750 m 7/8 4/8 - - -
Mi, 19.02. 1:00 1200 m 8/8 1/8 - - -
Di, 18.02. 19:00 900 m 7/8 7/8 - - -
Di, 18.02. 13:00 1080 m 8/8 8/8 - - -
Di, 18.02. 7:00 - 0/8 0/8 - - -
Di, 18.02. 1:00 960 m 7/8 7/8 - - -
Mo, 17.02. 19:00 180 m 7/8 7/8 - - -
Ortszeit Bedeckungsgrad in Achtel und Wolkenuntergrenze
Mi, 19.02. 14:10 1(1500m)
Mi, 19.02. 14:00 4(1470m)
Mi, 19.02. 13:50 4(1470m)
Mi, 19.02. 13:40 5(1470m)
Mi, 19.02. 13:30 6(1440m)
Mi, 19.02. 13:20 6(1440m)
Mi, 19.02. 13:00 3(1320m) 5(1500m)
Mi, 19.02. 12:30 3(1350m)
Mi, 19.02. 12:00 1(1050m)
Mi, 19.02. 11:30 1(990m) 2(1350m)
Mi, 19.02. 11:00 keine Wolken
Ortszeit Luftdruck NN (hPa) Tendenz (hPa in 3 Std.)
Mi, 19.02. 13:00 1021 + 1,8
Mi, 19.02. 7:00 1016 - 0,7
Mi, 19.02. 1:00 1021 - 2,9
Di, 18.02. 19:00 1025 - 0,1
Di, 18.02. 13:00 1026 0,0
Di, 18.02. 7:00 1024 + 1,4
Di, 18.02. 1:00 1022 + 2,6
Mo, 17.02. 19:00 1018 + 1,5
Ortszeit Luftdruck NN (hPa) Tendenz (hPa in 3 Std.)
Mi, 19.02. 14:10 1022 keine Meldung
Mi, 19.02. 14:00 1022 + 1,8
Mi, 19.02. 13:50 1022 keine Meldung
Mi, 19.02. 13:40 1022 keine Meldung
Mi, 19.02. 13:30 1022 + 1,8
Mi, 19.02. 13:20 1022 keine Meldung
Mi, 19.02. 13:00 1021 + 1,8
Mi, 19.02. 12:30 1021 + 2,2
Mi, 19.02. 12:00 1021 + 2,2
Mi, 19.02. 11:30 1020 + 2,5
Mi, 19.02. 11:00 1020 + 2,5
Ortszeit Schneehöhe (cm)
Mi, 19.02. 13:00 0
Mi, 19.02. 7:00 0
Mi, 19.02. 1:00 0
Di, 18.02. 19:00 0
Di, 18.02. 13:00 0
Di, 18.02. 7:00 0
Di, 18.02. 1:00 0
Mo, 17.02. 19:00 0
Ortszeit Schneehöhe (cm)
Mi, 19.02. 14:10 0
Mi, 19.02. 14:00 0
Mi, 19.02. 13:50 0
Mi, 19.02. 13:40 0
Mi, 19.02. 13:30 0
Mi, 19.02. 13:20 0
Mi, 19.02. 13:00 0
Mi, 19.02. 12:30 0
Mi, 19.02. 12:00 0
Mi, 19.02. 11:30 0
Mi, 19.02. 11:00 0
Link zu dieser Seite / Seite empfehlen

Das Wetter in ...